createdAt,value
2018-07-22T00:00:35.194Z,99.90
2018-07-22T00:03:03.290Z,99.90
2018-07-22T00:05:31.380Z,99.90
2018-07-22T00:07:59.476Z,99.90
2018-07-22T00:10:29.764Z,99.90
2018-07-22T00:12:58.625Z,99.90
2018-07-22T00:15:26.756Z,99.90
2018-07-22T00:17:54.867Z,99.90
2018-07-22T00:20:22.964Z,99.90
2018-07-22T00:22:51.035Z,99.90
2018-07-22T00:25:19.794Z,99.90
2018-07-22T00:27:47.870Z,99.90
2018-07-22T00:30:15.947Z,99.90
2018-07-22T00:32:44.055Z,99.90
2018-07-22T00:35:12.706Z,99.90
2018-07-22T00:37:41.280Z,99.90
2018-07-22T00:40:10.810Z,99.90
2018-07-22T00:42:39.270Z,99.90
2018-07-22T00:45:09.182Z,99.90
2018-07-22T00:47:37.280Z,99.90
2018-07-22T00:50:05.420Z,99.90
2018-07-22T00:52:33.527Z,99.90
2018-07-22T00:55:01.662Z,99.90
2018-07-22T00:57:29.777Z,99.90
2018-07-22T00:59:57.926Z,99.90
2018-07-22T01:02:26.005Z,99.90
2018-07-22T01:04:54.104Z,99.90
2018-07-22T01:07:22.174Z,99.90
2018-07-22T01:09:50.778Z,99.90
2018-07-22T01:12:18.850Z,99.90
2018-07-22T01:14:46.920Z,99.90
2018-07-22T01:17:15.057Z,99.90
2018-07-22T01:19:43.210Z,99.90
2018-07-22T01:22:11.318Z,99.90
2018-07-22T01:24:39.455Z,99.90
2018-07-22T01:27:07.534Z,99.90
2018-07-22T01:29:35.615Z,99.90
2018-07-22T01:32:03.684Z,99.90
2018-07-22T01:34:31.776Z,99.90
2018-07-22T01:36:59.883Z,99.90
2018-07-22T01:39:27.970Z,99.90
2018-07-22T01:41:56.043Z,99.90
2018-07-22T01:44:24.154Z,99.90
2018-07-22T01:46:52.212Z,99.90
2018-07-22T01:49:20.355Z,99.90
2018-07-22T01:51:48.447Z,99.90
2018-07-22T01:54:16.538Z,99.90
2018-07-22T01:56:44.624Z,99.90
2018-07-22T01:59:12.712Z,99.90
2018-07-22T02:01:40.877Z,99.90
2018-07-22T02:04:08.927Z,99.90
2018-07-22T02:06:37.005Z,99.90
2018-07-22T02:09:06.947Z,99.90
2018-07-22T02:11:35.028Z,99.90
2018-07-22T02:14:03.161Z,99.90
2018-07-22T02:16:31.234Z,99.90
2018-07-22T02:18:59.345Z,99.90
2018-07-22T02:21:27.409Z,99.90
2018-07-22T02:23:55.498Z,99.90
2018-07-22T02:26:23.589Z,99.90
2018-07-22T02:28:51.654Z,99.90
2018-07-22T02:31:19.751Z,99.90
2018-07-22T02:33:47.859Z,99.90
2018-07-22T02:36:15.935Z,99.90
2018-07-22T02:38:44.040Z,99.90
2018-07-22T02:41:12.118Z,99.90
2018-07-22T02:43:40.451Z,99.90
2018-07-22T02:46:08.524Z,99.90
2018-07-22T02:48:37.292Z,99.90
2018-07-22T02:51:05.417Z,99.90
2018-07-22T02:53:33.504Z,99.90
2018-07-22T02:56:01.608Z,99.90
2018-07-22T02:58:29.696Z,99.90
2018-07-22T03:00:57.802Z,99.90
2018-07-22T03:03:25.928Z,99.90
2018-07-22T03:05:54.786Z,99.90
2018-07-22T03:08:22.871Z,99.90
2018-07-22T03:10:50.983Z,99.90
2018-07-22T03:13:19.058Z,99.90
2018-07-22T03:15:47.162Z,99.90
2018-07-22T03:18:15.292Z,99.90
2018-07-22T03:20:43.379Z,99.90
2018-07-22T03:23:11.515Z,99.90
2018-07-22T03:25:39.632Z,99.90
2018-07-22T03:28:07.796Z,99.90
2018-07-22T03:30:35.918Z,99.90
2018-07-22T03:33:04.046Z,99.90
2018-07-22T03:35:32.119Z,99.90
2018-07-22T03:38:00.216Z,99.90
2018-07-22T03:40:28.318Z,99.90
2018-07-22T03:42:56.399Z,99.90
2018-07-22T03:47:53.075Z,99.90
2018-07-22T03:50:21.158Z,99.90
2018-07-22T03:52:49.228Z,99.90
2018-07-22T03:55:17.328Z,99.90
2018-07-22T03:57:45.410Z,99.90
2018-07-22T04:00:13.556Z,99.90
2018-07-22T04:02:41.663Z,99.90
2018-07-22T04:05:09.738Z,99.90
2018-07-22T04:07:37.827Z,99.90
2018-07-22T04:10:05.954Z,99.90
2018-07-22T04:12:34.023Z,99.90
2018-07-22T04:15:02.098Z,99.90
2018-07-22T04:17:30.222Z,99.90
2018-07-22T04:19:58.329Z,99.90
2018-07-22T04:22:26.407Z,99.90
2018-07-22T04:24:54.540Z,99.90
2018-07-22T04:27:22.635Z,99.90
2018-07-22T04:29:50.716Z,99.90
2018-07-22T04:32:18.817Z,99.90
2018-07-22T04:34:46.895Z,99.90
2018-07-22T04:37:14.975Z,99.90
2018-07-22T04:39:43.352Z,99.90
2018-07-22T04:42:11.485Z,99.90
2018-07-22T04:44:39.555Z,99.90
2018-07-22T04:47:07.754Z,99.90
2018-07-22T04:49:35.822Z,99.90
2018-07-22T04:52:03.907Z,99.90
2018-07-22T04:54:32.019Z,99.90
2018-07-22T04:57:00.099Z,99.90
2018-07-22T04:59:28.978Z,99.90
2018-07-22T05:01:57.470Z,99.90
2018-07-22T05:04:25.547Z,99.90
2018-07-22T05:06:53.648Z,99.90
2018-07-22T05:09:21.718Z,99.90
2018-07-22T05:11:49.832Z,99.90
2018-07-22T05:14:17.923Z,99.90
2018-07-22T05:16:46.011Z,99.90
2018-07-22T05:19:14.114Z,99.90
2018-07-22T05:21:42.178Z,99.90
2018-07-22T05:24:10.669Z,99.90
2018-07-22T05:26:38.762Z,99.90
2018-07-22T05:29:06.862Z,99.90
2018-07-22T05:31:34.996Z,99.90
2018-07-22T05:34:03.092Z,99.90
2018-07-22T05:36:31.190Z,99.90
2018-07-22T05:38:59.500Z,99.90
2018-07-22T05:41:27.574Z,99.90
2018-07-22T05:43:55.657Z,99.90
2018-07-22T05:46:23.763Z,99.90
2018-07-22T05:48:51.866Z,99.90
2018-07-22T05:51:19.952Z,99.90
2018-07-22T05:53:48.022Z,99.90
2018-07-22T05:56:16.114Z,99.90
2018-07-22T05:58:44.203Z,99.90
2018-07-22T06:01:12.283Z,99.90
2018-07-22T06:03:40.410Z,99.90
2018-07-22T06:06:08.471Z,99.90
2018-07-22T06:08:36.550Z,99.90
2018-07-22T06:11:04.646Z,99.90
2018-07-22T06:13:32.722Z,99.90
2018-07-22T06:16:00.803Z,99.90
2018-07-22T06:18:28.951Z,99.90
2018-07-22T06:20:57.016Z,99.90
2018-07-22T06:23:25.136Z,99.90
2018-07-22T06:25:53.200Z,99.90
2018-07-22T06:28:21.287Z,99.90
2018-07-22T06:30:49.352Z,99.90
2018-07-22T06:33:17.470Z,99.90
2018-07-22T06:35:45.539Z,99.90
2018-07-22T06:38:13.636Z,99.90
2018-07-22T06:40:41.736Z,99.90
2018-07-22T06:43:09.959Z,99.90
2018-07-22T06:45:38.065Z,99.90
2018-07-22T06:48:06.227Z,99.90
2018-07-22T06:50:34.318Z,99.90
2018-07-22T06:53:02.404Z,99.90
2018-07-22T06:55:30.498Z,99.90
2018-07-22T06:57:58.571Z,99.90
2018-07-22T07:00:26.632Z,99.90
2018-07-22T07:02:54.713Z,99.90
2018-07-22T07:05:22.875Z,99.90
2018-07-22T07:07:50.899Z,99.90
2018-07-22T07:10:18.970Z,99.90
2018-07-22T07:12:47.048Z,99.90
2018-07-22T07:15:15.161Z,99.90
2018-07-22T07:17:43.316Z,99.90
2018-07-22T07:20:11.410Z,99.90
2018-07-22T07:22:39.505Z,99.90
2018-07-22T07:25:07.893Z,99.90
2018-07-22T07:27:35.996Z,99.90
2018-07-22T07:30:04.567Z,99.90
2018-07-22T07:32:32.653Z,99.90
2018-07-22T07:35:00.894Z,99.90
2018-07-22T07:37:28.983Z,99.90
2018-07-22T07:39:57.074Z,99.90
2018-07-22T07:42:25.219Z,99.90
2018-07-22T07:44:53.358Z,99.90
2018-07-22T07:47:21.483Z,99.90
2018-07-22T07:49:49.566Z,99.90
2018-07-22T07:52:18.093Z,99.90
2018-07-22T07:54:46.182Z,99.90
2018-07-22T07:57:14.269Z,99.90
2018-07-22T07:59:42.358Z,99.90
2018-07-22T08:02:10.521Z,99.90
2018-07-22T08:04:38.648Z,99.90
2018-07-22T08:07:06.716Z,97.20
2018-07-22T08:09:34.832Z,97.60
2018-07-22T08:12:02.929Z,97.90
2018-07-22T08:14:31.160Z,95.50
2018-07-22T08:16:59.308Z,92.90
2018-07-22T08:19:27.423Z,93.90
2018-07-22T08:21:55.686Z,93.50
2018-07-22T08:24:23.670Z,92.80
2018-07-22T08:26:51.755Z,94.00
2018-07-22T08:29:22.526Z,92.10
2018-07-22T08:31:50.793Z,91.30
2018-07-22T08:34:19.127Z,92.60
2018-07-22T08:36:47.864Z,91.80
2018-07-22T08:39:16.529Z,92.00
2018-07-22T08:41:44.619Z,91.50
2018-07-22T08:44:12.734Z,91.20
2018-07-22T08:46:41.839Z,89.80
2018-07-22T08:49:09.979Z,90.10
2018-07-22T08:51:38.088Z,86.20
2018-07-22T08:54:06.209Z,88.10
2018-07-22T08:56:34.445Z,85.10
2018-07-22T08:59:02.800Z,86.00
2018-07-22T09:01:31.326Z,84.40
2018-07-22T09:04:00.171Z,81.60
2018-07-22T09:06:28.598Z,83.40
2018-07-22T09:08:56.707Z,81.50
2018-07-22T09:11:25.241Z,78.80
2018-07-22T09:13:53.635Z,76.20
2018-07-22T09:16:21.714Z,74.60
2018-07-22T09:18:49.878Z,75.20
2018-07-22T09:21:17.979Z,73.60
2018-07-22T09:23:46.063Z,70.20
2018-07-22T09:26:14.123Z,69.40
2018-07-22T09:28:42.251Z,67.90
2018-07-22T09:31:10.352Z,70.30
2018-07-22T09:33:38.428Z,68.70
2018-07-22T09:36:06.629Z,67.20
2018-07-22T09:38:34.706Z,67.10
2018-07-22T09:41:02.811Z,64.00
2018-07-22T09:43:30.972Z,60.80
2018-07-22T09:45:59.070Z,60.90
2018-07-22T09:48:27.199Z,55.50
2018-07-22T09:50:55.356Z,54.00
2018-07-22T09:53:23.447Z,52.40
2018-07-22T09:55:51.578Z,52.20
2018-07-22T09:58:19.790Z,51.40
2018-07-22T10:00:53.463Z,51.30
2018-07-22T10:03:22.127Z,50.30
2018-07-22T10:05:50.213Z,50.90
2018-07-22T10:08:18.366Z,51.00
2018-07-22T10:10:46.454Z,48.90
2018-07-22T10:13:14.568Z,46.40
2018-07-22T10:15:42.653Z,46.10
2018-07-22T10:18:10.733Z,44.00
2018-07-22T10:20:38.826Z,43.30
2018-07-22T10:23:06.959Z,43.20
2018-07-22T10:25:35.881Z,43.20
2018-07-22T10:28:03.946Z,43.90
2018-07-22T10:30:32.071Z,42.90
2018-07-22T10:33:00.175Z,44.30
2018-07-22T10:35:28.262Z,45.30
2018-07-22T10:37:56.359Z,46.60
2018-07-22T10:40:24.441Z,43.20
2018-07-22T10:42:52.623Z,43.40
2018-07-22T10:45:20.744Z,42.40
2018-07-22T10:47:48.855Z,42.50
2018-07-22T10:50:16.974Z,41.20
2018-07-22T10:52:46.135Z,42.40
2018-07-22T10:55:14.221Z,43.10
2018-07-22T10:57:42.314Z,42.50
2018-07-22T11:00:10.471Z,41.50
2018-07-22T11:02:38.558Z,41.60
2018-07-22T11:05:07.503Z,39.60
2018-07-22T11:07:36.185Z,37.50
2018-07-22T11:10:05.123Z,37.10
2018-07-22T11:12:33.810Z,37.70
2018-07-22T11:15:01.940Z,37.60
2018-07-22T11:17:30.086Z,38.40
2018-07-22T11:19:58.190Z,39.10
2018-07-22T11:22:26.385Z,39.30
2018-07-22T11:24:54.486Z,40.30
2018-07-22T11:27:22.583Z,38.70
2018-07-22T11:29:50.723Z,37.10
2018-07-22T11:32:18.834Z,34.70
2018-07-22T11:34:47.654Z,37.00
2018-07-22T11:37:15.764Z,37.80
2018-07-22T11:39:43.886Z,37.30
2018-07-22T11:42:11.977Z,39.40
2018-07-22T11:44:40.078Z,38.30
2018-07-22T11:47:08.197Z,39.20
2018-07-22T11:49:36.284Z,37.90
2018-07-22T11:52:04.410Z,38.10
2018-07-22T11:54:32.523Z,36.90
2018-07-22T11:57:00.597Z,37.30
2018-07-22T11:59:28.702Z,37.00
2018-07-22T12:01:56.843Z,37.60
2018-07-22T12:04:24.971Z,36.80
2018-07-22T12:06:53.098Z,37.60
2018-07-22T12:09:21.215Z,38.80
2018-07-22T12:11:49.313Z,36.40
2018-07-22T12:14:17.460Z,39.80
2018-07-22T12:16:45.577Z,37.40
2018-07-22T12:19:13.670Z,38.20
2018-07-22T12:21:41.747Z,39.20
2018-07-22T12:24:09.869Z,38.30
2018-07-22T12:26:37.950Z,38.70
2018-07-22T12:29:12.791Z,40.70
2018-07-22T12:31:41.030Z,40.80
2018-07-22T12:34:09.240Z,41.30
2018-07-22T12:36:37.564Z,39.20
2018-07-22T12:39:09.118Z,39.30
2018-07-22T12:41:37.215Z,40.10
2018-07-22T12:44:05.335Z,38.70
2018-07-22T12:46:33.483Z,37.00
2018-07-22T12:49:01.552Z,37.70
2018-07-22T12:51:29.621Z,37.00
2018-07-22T12:53:57.758Z,36.40
2018-07-22T12:56:25.865Z,37.60
2018-07-22T12:58:53.967Z,37.30
2018-07-22T13:01:22.058Z,37.20
2018-07-22T13:03:50.161Z,37.50
2018-07-22T13:06:18.261Z,38.00
2018-07-22T13:08:46.508Z,38.70
2018-07-22T13:11:14.661Z,38.70
2018-07-22T13:13:42.750Z,37.40
2018-07-22T13:16:10.839Z,36.40
2018-07-22T13:18:38.962Z,37.70
2018-07-22T13:21:07.146Z,38.20
2018-07-22T13:23:35.244Z,38.30
2018-07-22T13:26:03.335Z,38.60
2018-07-22T13:28:31.532Z,40.60
2018-07-22T13:30:59.693Z,38.70
2018-07-22T13:33:27.830Z,40.30
2018-07-22T13:35:55.951Z,41.00
2018-07-22T13:40:51.954Z,42.10
2018-07-22T13:43:20.059Z,42.50
2018-07-22T13:45:48.179Z,43.40
2018-07-22T13:48:16.314Z,43.00
2018-07-22T13:50:44.426Z,42.70
2018-07-22T13:53:12.591Z,42.70
2018-07-22T13:55:40.683Z,43.50
2018-07-22T13:58:08.790Z,44.30
2018-07-22T14:00:37.330Z,43.60
2018-07-22T14:03:05.724Z,42.90
2018-07-22T14:05:34.274Z,45.40
2018-07-22T14:08:02.551Z,43.90
2018-07-22T14:10:30.680Z,43.60
2018-07-22T14:12:58.797Z,43.40
2018-07-22T14:15:26.928Z,44.00
2018-07-22T14:17:55.043Z,43.00
2018-07-22T14:20:23.123Z,43.40
2018-07-22T14:22:51.206Z,43.70
2018-07-22T14:25:19.302Z,44.60
2018-07-22T14:27:47.458Z,44.90
2018-07-22T14:30:15.527Z,44.20
2018-07-22T14:32:43.618Z,43.60
2018-07-22T14:35:11.813Z,43.80
2018-07-22T14:37:39.854Z,41.60
2018-07-22T14:40:07.937Z,42.50
2018-07-22T14:42:36.041Z,43.90
2018-07-22T14:45:05.092Z,44.40
2018-07-22T14:47:33.762Z,43.50
2018-07-22T14:50:01.907Z,43.40
2018-07-22T14:52:29.985Z,44.00
2018-07-22T14:54:58.074Z,44.00
2018-07-22T14:57:26.186Z,44.20
2018-07-22T14:59:54.267Z,44.40
2018-07-22T15:02:22.360Z,43.30
2018-07-22T15:04:50.458Z,44.60
2018-07-22T15:07:18.631Z,44.80
2018-07-22T15:09:46.730Z,44.70
2018-07-22T15:12:15.559Z,45.40
2018-07-22T15:14:43.631Z,45.60
2018-07-22T15:17:12.003Z,45.30
2018-07-22T15:19:40.155Z,46.30
2018-07-22T15:22:08.313Z,46.60
2018-07-22T15:24:36.372Z,46.20
2018-07-22T15:27:04.483Z,46.40
2018-07-22T15:29:32.563Z,46.80
2018-07-22T15:32:00.646Z,46.60
2018-07-22T15:34:28.746Z,46.00
2018-07-22T15:36:56.810Z,46.70
2018-07-22T15:39:24.896Z,47.10
2018-07-22T15:41:53.010Z,46.30
2018-07-22T15:44:21.237Z,46.00
2018-07-22T15:46:49.327Z,47.00
2018-07-22T15:49:18.744Z,46.00
2018-07-22T15:51:46.834Z,47.50
2018-07-22T15:54:14.897Z,46.20
2018-07-22T15:56:43.813Z,47.60
2018-07-22T15:59:11.940Z,47.40
2018-07-22T16:01:41.544Z,47.60
2018-07-22T16:04:10.279Z,47.60
2018-07-22T16:06:38.358Z,47.70
2018-07-22T16:09:08.018Z,47.60
2018-07-22T16:11:36.273Z,46.00
2018-07-22T16:14:04.439Z,46.70
2018-07-22T16:16:32.481Z,46.30
2018-07-22T16:19:00.901Z,46.60
2018-07-22T16:21:29.033Z,46.10
2018-07-22T16:23:58.267Z,46.90
2018-07-22T16:26:26.366Z,46.60
2018-07-22T16:28:54.492Z,47.60
2018-07-22T16:31:22.671Z,47.90
2018-07-22T16:33:50.824Z,46.70
2018-07-22T16:36:19.006Z,47.00
2018-07-22T16:38:48.085Z,47.70
2018-07-22T16:41:17.345Z,48.70
2018-07-22T16:43:46.992Z,48.50
2018-07-22T16:46:15.071Z,47.50
2018-07-22T16:48:44.231Z,48.10
2018-07-22T16:51:14.062Z,48.20
2018-07-22T16:53:42.209Z,47.90
2018-07-22T16:56:10.344Z,48.00
2018-07-22T16:58:38.464Z,48.20
2018-07-22T17:01:06.626Z,48.40
2018-07-22T17:03:34.701Z,50.50
2018-07-22T17:06:02.859Z,50.50
2018-07-22T17:08:31.507Z,52.50
2018-07-22T17:10:59.610Z,51.70
2018-07-22T17:13:27.744Z,50.80
2018-07-22T17:15:56.694Z,51.80
2018-07-22T17:18:24.839Z,51.80
2018-07-22T17:20:52.938Z,51.60
2018-07-22T17:23:21.086Z,51.30
2018-07-22T17:25:49.266Z,52.70
2018-07-22T17:28:17.369Z,53.80
2018-07-22T17:30:45.549Z,55.40
2018-07-22T17:33:13.735Z,54.50
2018-07-22T17:35:41.842Z,54.40
2018-07-22T17:38:09.945Z,55.90
2018-07-22T17:40:38.135Z,55.90
2018-07-22T17:43:06.750Z,55.60
2018-07-22T17:45:35.598Z,55.20
2018-07-22T17:48:03.756Z,57.00
2018-07-22T17:50:31.916Z,56.80
2018-07-22T17:53:00.249Z,57.00
2018-07-22T17:55:28.558Z,56.70
2018-07-22T17:57:56.670Z,57.30
2018-07-22T18:00:24.814Z,57.10
2018-07-22T18:02:57.082Z,56.90
2018-07-22T18:05:25.194Z,58.20
2018-07-22T18:07:53.325Z,57.90
2018-07-22T18:10:21.425Z,57.60
2018-07-22T18:12:49.637Z,59.00
2018-07-22T18:15:17.798Z,58.90
2018-07-22T18:17:45.966Z,58.70
2018-07-22T18:20:14.180Z,58.70
2018-07-22T18:22:42.362Z,58.40
2018-07-22T18:25:10.466Z,60.10
2018-07-22T18:27:39.693Z,59.20
2018-07-22T18:30:07.918Z,59.10
2018-07-22T18:32:36.002Z,59.50
2018-07-22T18:35:04.174Z,60.40
2018-07-22T18:37:32.446Z,60.10
2018-07-22T18:40:00.517Z,60.20
2018-07-22T18:42:28.673Z,59.80
2018-07-22T18:44:56.841Z,60.60
2018-07-22T18:47:24.945Z,61.70
2018-07-22T18:49:53.089Z,61.90
2018-07-22T18:52:21.181Z,64.60
2018-07-22T18:54:49.353Z,62.40
2018-07-22T18:57:17.440Z,62.50
2018-07-22T18:59:45.581Z,61.80
2018-07-22T19:02:13.662Z,63.30
2018-07-22T19:04:41.787Z,63.00
2018-07-22T19:07:10.002Z,61.60
2018-07-22T19:09:38.163Z,63.40
2018-07-22T19:12:06.272Z,64.90
2018-07-22T19:14:34.351Z,65.50
2018-07-22T19:17:02.430Z,65.60
2018-07-22T19:19:30.578Z,65.60
2018-07-22T19:21:58.749Z,64.70
2018-07-22T19:24:26.846Z,64.40
2018-07-22T19:26:55.186Z,64.30
2018-07-22T19:29:23.286Z,63.90
2018-07-22T19:31:51.378Z,65.30
2018-07-22T19:34:19.489Z,65.60
2018-07-22T19:36:47.572Z,65.90
2018-07-22T19:39:15.654Z,66.90
2018-07-22T19:41:43.755Z,67.10
2018-07-22T19:44:11.866Z,67.50
2018-07-22T19:46:40.018Z,67.70
2018-07-22T19:49:08.099Z,68.00
2018-07-22T19:51:36.852Z,68.60
2018-07-22T19:54:05.178Z,68.80
2018-07-22T19:56:33.295Z,69.30
2018-07-22T19:59:01.520Z,69.40
2018-07-22T20:01:29.666Z,70.60
2018-07-22T20:03:57.792Z,70.80
2018-07-22T20:06:29.495Z,71.50
2018-07-22T20:08:57.596Z,71.80
2018-07-22T20:11:25.683Z,72.00
2018-07-22T20:13:53.795Z,73.00
2018-07-22T20:16:21.876Z,73.80
2018-07-22T20:18:50.032Z,74.30
2018-07-22T20:21:18.115Z,74.80
2018-07-22T20:23:46.386Z,75.60
2018-07-22T20:26:14.515Z,76.50
2018-07-22T20:28:42.606Z,77.30
2018-07-22T20:31:10.765Z,78.70
2018-07-22T20:33:38.895Z,79.50
2018-07-22T20:36:06.997Z,81.40
2018-07-22T20:38:35.147Z,82.10
2018-07-22T20:41:03.489Z,84.40
2018-07-22T20:43:31.596Z,85.90
2018-07-22T20:45:59.673Z,87.80
2018-07-22T20:48:27.782Z,88.80
2018-07-22T20:50:55.891Z,90.70
2018-07-22T20:53:23.994Z,90.40
2018-07-22T20:55:52.090Z,90.70
2018-07-22T20:58:20.192Z,90.90
2018-07-22T21:00:48.337Z,91.50
2018-07-22T21:03:16.455Z,91.90
2018-07-22T21:05:44.559Z,92.50
2018-07-22T21:08:12.721Z,93.40
2018-07-22T21:10:40.790Z,95.10
2018-07-22T21:13:14.117Z,95.80
2018-07-22T21:15:42.224Z,95.30
2018-07-22T21:18:10.386Z,95.50
2018-07-22T21:20:38.578Z,96.30
2018-07-22T21:23:10.726Z,96.10
2018-07-22T21:25:38.845Z,96.70
2018-07-22T21:28:06.942Z,97.60
2018-07-22T21:30:35.038Z,98.00
2018-07-22T21:33:03.215Z,98.60
2018-07-22T21:35:31.369Z,99.50
2018-07-22T21:37:59.501Z,99.90
